sensor_id;sensor_type;location;lat;lon;timestamp;P1;durP1;ratioP1;P2;durP2;ratioP2
4867;SDS011;2448;48.086;10.862;2023-01-05T00:00:24;0.60;;;0.60;;
4867;SDS011;2448;48.086;10.862;2023-01-05T00:02:50;0.80;;;0.80;;
4867;SDS011;2448;48.086;10.862;2023-01-05T00:05:15;0.70;;;0.70;;
4867;SDS011;2448;48.086;10.862;2023-01-05T00:07:41;0.80;;;0.80;;
4867;SDS011;2448;48.086;10.862;2023-01-05T00:10:07;0.63;;;0.63;;
4867;SDS011;2448;48.086;10.862;2023-01-05T00:12:52;0.70;;;0.70;;
4867;SDS011;2448;48.086;10.862;2023-01-05T00:15:36;0.80;;;0.80;;
4867;SDS011;2448;48.086;10.862;2023-01-05T00:18:21;0.80;;;0.80;;
4867;SDS011;2448;48.086;10.862;2023-01-05T00:21:08;0.80;;;0.80;;
4867;SDS011;2448;48.086;10.862;2023-01-05T00:23:52;0.80;;;0.80;;
4867;SDS011;2448;48.086;10.862;2023-01-05T00:26:18;0.60;;;0.60;;
4867;SDS011;2448;48.086;10.862;2023-01-05T00:28:43;0.50;;;0.50;;
4867;SDS011;2448;48.086;10.862;2023-01-05T00:31:09;0.60;;;0.60;;
4867;SDS011;2448;48.086;10.862;2023-01-05T00:33:34;1.33;;;0.90;;
4867;SDS011;2448;48.086;10.862;2023-01-05T00:35:59;0.70;;;0.70;;
4867;SDS011;2448;48.086;10.862;2023-01-05T00:38:25;0.70;;;0.70;;
4867;SDS011;2448;48.086;10.862;2023-01-05T00:40:50;0.60;;;0.60;;
4867;SDS011;2448;48.086;10.862;2023-01-05T00:43:16;4.63;;;1.10;;
4867;SDS011;2448;48.086;10.862;2023-01-05T00:45:41;0.60;;;0.60;;
4867;SDS011;2448;48.086;10.862;2023-01-05T00:48:07;0.60;;;0.60;;
4867;SDS011;2448;48.086;10.862;2023-01-05T00:50:33;0.80;;;0.80;;
4867;SDS011;2448;48.086;10.862;2023-01-05T00:52:59;0.60;;;0.60;;
4867;SDS011;2448;48.086;10.862;2023-01-05T00:55:25;0.70;;;0.70;;
4867;SDS011;2448;48.086;10.862;2023-01-05T00:57:50;0.60;;;0.60;;
4867;SDS011;2448;48.086;10.862;2023-01-05T01:00:16;0.70;;;0.70;;
4867;SDS011;2448;48.086;10.862;2023-01-05T01:02:43;0.80;;;0.80;;
4867;SDS011;2448;48.086;10.862;2023-01-05T01:05:08;0.70;;;0.70;;
4867;SDS011;2448;48.086;10.862;2023-01-05T01:07:34;0.60;;;0.60;;
4867;SDS011;2448;48.086;10.862;2023-01-05T01:09:59;0.50;;;0.50;;
4867;SDS011;2448;48.086;10.862;2023-01-05T01:12:25;0.60;;;0.60;;
4867;SDS011;2448;48.086;10.862;2023-01-05T01:14:50;0.97;;;0.90;;
4867;SDS011;2448;48.086;10.862;2023-01-05T01:17:16;1.00;;;1.00;;
4867;SDS011;2448;48.086;10.862;2023-01-05T01:19:41;0.60;;;0.60;;
4867;SDS011;2448;48.086;10.862;2023-01-05T01:22:07;0.63;;;0.63;;
4867;SDS011;2448;48.086;10.862;2023-01-05T01:24:32;0.60;;;0.60;;
4867;SDS011;2448;48.086;10.862;2023-01-05T01:26:58;0.90;;;0.90;;
4867;SDS011;2448;48.086;10.862;2023-01-05T01:29:23;0.60;;;0.60;;
4867;SDS011;2448;48.086;10.862;2023-01-05T01:31:49;0.63;;;0.63;;
4867;SDS011;2448;48.086;10.862;2023-01-05T01:34:15;0.60;;;0.60;;
4867;SDS011;2448;48.086;10.862;2023-01-05T01:36:40;0.70;;;0.70;;
4867;SDS011;2448;48.086;10.862;2023-01-05T01:39:06;0.60;;;0.60;;
4867;SDS011;2448;48.086;10.862;2023-01-05T01:41:34;0.70;;;0.70;;
4867;SDS011;2448;48.086;10.862;2023-01-05T01:44:00;0.60;;;0.60;;
4867;SDS011;2448;48.086;10.862;2023-01-05T01:46:27;0.50;;;0.50;;
4867;SDS011;2448;48.086;10.862;2023-01-05T01:49:06;0.80;;;0.80;;
4867;SDS011;2448;48.086;10.862;2023-01-05T01:51:39;0.53;;;0.53;;
4867;SDS011;2448;48.086;10.862;2023-01-05T01:54:10;0.60;;;0.60;;
4867;SDS011;2448;48.086;10.862;2023-01-05T01:56:44;0.70;;;0.70;;
4867;SDS011;2448;48.086;10.862;2023-01-05T01:59:11;0.60;;;0.60;;
4867;SDS011;2448;48.086;10.862;2023-01-05T02:01:37;0.60;;;0.60;;
4867;SDS011;2448;48.086;10.862;2023-01-05T02:04:03;0.73;;;0.73;;
4867;SDS011;2448;48.086;10.862;2023-01-05T02:06:29;0.60;;;0.60;;
4867;SDS011;2448;48.086;10.862;2023-01-05T02:08:55;0.60;;;0.60;;
4867;SDS011;2448;48.086;10.862;2023-01-05T02:32:33;0.60;;;0.60;;
4867;SDS011;2448;48.086;10.862;2023-01-05T02:37:44;0.80;;;0.80;;
4867;SDS011;2448;48.086;10.862;2023-01-05T02:40:16;0.60;;;0.60;;
4867;SDS011;2448;48.086;10.862;2023-01-05T02:42:45;0.70;;;0.70;;
4867;SDS011;2448;48.086;10.862;2023-01-05T02:45:13;0.60;;;0.60;;
4867;SDS011;2448;48.086;10.862;2023-01-05T02:47:40;0.60;;;0.60;;
4867;SDS011;2448;48.086;10.862;2023-01-05T02:50:15;0.67;;;0.67;;
4867;SDS011;2448;48.086;10.862;2023-01-05T02:55:15;0.57;;;0.57;;
4867;SDS011;2448;48.086;10.862;2023-01-05T02:57:47;17.73;;;1.17;;
4867;SDS011;2448;48.086;10.862;2023-01-05T03:02:49;0.63;;;0.63;;
4867;SDS011;2448;48.086;10.862;2023-01-05T03:05:16;0.60;;;0.60;;
4867;SDS011;2448;48.086;10.862;2023-01-05T03:07:43;0.70;;;0.70;;
4867;SDS011;2448;48.086;10.862;2023-01-05T03:10:11;0.70;;;0.60;;
4867;SDS011;2448;48.086;10.862;2023-01-05T03:12:56;0.70;;;0.70;;
4867;SDS011;2448;48.086;10.862;2023-01-05T03:15:42;0.50;;;0.50;;
4867;SDS011;2448;48.086;10.862;2023-01-05T03:18:10;0.50;;;0.50;;
4867;SDS011;2448;48.086;10.862;2023-01-05T03:20:40;0.60;;;0.60;;
4867;SDS011;2448;48.086;10.862;2023-01-05T03:23:08;0.60;;;0.60;;
4867;SDS011;2448;48.086;10.862;2023-01-05T03:25:53;0.87;;;0.70;;
4867;SDS011;2448;48.086;10.862;2023-01-05T03:28:39;0.80;;;0.80;;
4867;SDS011;2448;48.086;10.862;2023-01-05T03:31:34;0.67;;;0.67;;
4867;SDS011;2448;48.086;10.862;2023-01-05T03:34:36;1.13;;;0.80;;
4867;SDS011;2448;48.086;10.862;2023-01-05T03:37:26;0.70;;;0.70;;
4867;SDS011;2448;48.086;10.862;2023-01-05T03:39:53;4.17;;;0.80;;
4867;SDS011;2448;48.086;10.862;2023-01-05T03:42:18;0.60;;;0.60;;
4867;SDS011;2448;48.086;10.862;2023-01-05T03:44:44;0.60;;;0.60;;
4867;SDS011;2448;48.086;10.862;2023-01-05T03:47:13;0.70;;;0.70;;
4867;SDS011;2448;48.086;10.862;2023-01-05T03:49:39;0.70;;;0.70;;
4867;SDS011;2448;48.086;10.862;2023-01-05T03:52:06;0.70;;;0.70;;
4867;SDS011;2448;48.086;10.862;2023-01-05T03:54:31;0.60;;;0.60;;
4867;SDS011;2448;48.086;10.862;2023-01-05T03:56:57;1.07;;;0.70;;
4867;SDS011;2448;48.086;10.862;2023-01-05T03:59:22;0.60;;;0.60;;
4867;SDS011;2448;48.086;10.862;2023-01-05T04:01:49;0.50;;;0.50;;
4867;SDS011;2448;48.086;10.862;2023-01-05T04:04:15;0.57;;;0.57;;
4867;SDS011;2448;48.086;10.862;2023-01-05T04:06:40;0.50;;;0.50;;
4867;SDS011;2448;48.086;10.862;2023-01-05T04:09:07;0.57;;;0.57;;
4867;SDS011;2448;48.086;10.862;2023-01-05T04:11:33;0.67;;;0.67;;
4867;SDS011;2448;48.086;10.862;2023-01-05T04:14:02;0.57;;;0.53;;
4867;SDS011;2448;48.086;10.862;2023-01-05T04:16:29;1.23;;;0.70;;
4867;SDS011;2448;48.086;10.862;2023-01-05T04:18:58;0.50;;;0.50;;
4867;SDS011;2448;48.086;10.862;2023-01-05T04:21:24;2.67;;;0.60;;
4867;SDS011;2448;48.086;10.862;2023-01-05T04:23:52;0.60;;;0.60;;
4867;SDS011;2448;48.086;10.862;2023-01-05T04:26:17;0.60;;;0.60;;
4867;SDS011;2448;48.086;10.862;2023-01-05T04:28:47;0.60;;;0.60;;
4867;SDS011;2448;48.086;10.862;2023-01-05T04:31:13;0.60;;;0.60;;
4867;SDS011;2448;48.086;10.862;2023-01-05T04:33:39;0.60;;;0.60;;
4867;SDS011;2448;48.086;10.862;2023-01-05T04:36:06;0.60;;;0.60;;
4867;SDS011;2448;48.086;10.862;2023-01-05T04:38:31;0.60;;;0.60;;
4867;SDS011;2448;48.086;10.862;2023-01-05T04:40:58;0.60;;;0.60;;
4867;SDS011;2448;48.086;10.862;2023-01-05T04:43:24;0.60;;;0.60;;
4867;SDS011;2448;48.086;10.862;2023-01-05T04:45:50;0.73;;;0.73;;
4867;SDS011;2448;48.086;10.862;2023-01-05T04:48:16;0.70;;;0.70;;
4867;SDS011;2448;48.086;10.862;2023-01-05T04:50:42;0.60;;;0.60;;
4867;SDS011;2448;48.086;10.862;2023-01-05T04:53:07;0.60;;;0.60;;
4867;SDS011;2448;48.086;10.862;2023-01-05T04:55:36;0.50;;;0.50;;
4867;SDS011;2448;48.086;10.862;2023-01-05T04:58:02;0.80;;;0.80;;
4867;SDS011;2448;48.086;10.862;2023-01-05T05:00:28;0.50;;;0.50;;
4867;SDS011;2448;48.086;10.862;2023-01-05T05:02:56;0.60;;;0.60;;
4867;SDS011;2448;48.086;10.862;2023-01-05T05:05:23;0.60;;;0.60;;
4867;SDS011;2448;48.086;10.862;2023-01-05T05:07:51;0.70;;;0.70;;
4867;SDS011;2448;48.086;10.862;2023-01-05T05:10:16;0.50;;;0.50;;
4867;SDS011;2448;48.086;10.862;2023-01-05T05:12:42;0.80;;;0.80;;
4867;SDS011;2448;48.086;10.862;2023-01-05T05:15:08;0.60;;;0.60;;
4867;SDS011;2448;48.086;10.862;2023-01-05T05:17:34;0.50;;;0.50;;
4867;SDS011;2448;48.086;10.862;2023-01-05T05:19:59;3.93;;;0.80;;
4867;SDS011;2448;48.086;10.862;2023-01-05T05:22:24;0.70;;;0.70;;
4867;SDS011;2448;48.086;10.862;2023-01-05T05:24:52;1.93;;;0.70;;
4867;SDS011;2448;48.086;10.862;2023-01-05T05:27:17;0.50;;;0.50;;
4867;SDS011;2448;48.086;10.862;2023-01-05T05:29:42;0.60;;;0.60;;
4867;SDS011;2448;48.086;10.862;2023-01-05T05:32:08;0.73;;;0.73;;
4867;SDS011;2448;48.086;10.862;2023-01-05T05:34:33;0.70;;;0.70;;
4867;SDS011;2448;48.086;10.862;2023-01-05T05:36:58;0.70;;;0.70;;
4867;SDS011;2448;48.086;10.862;2023-01-05T05:39:24;0.60;;;0.60;;
4867;SDS011;2448;48.086;10.862;2023-01-05T05:41:49;0.60;;;0.60;;
4867;SDS011;2448;48.086;10.862;2023-01-05T05:44:14;0.80;;;0.80;;
4867;SDS011;2448;48.086;10.862;2023-01-05T05:46:40;0.70;;;0.70;;
4867;SDS011;2448;48.086;10.862;2023-01-05T05:49:05;0.70;;;0.70;;
4867;SDS011;2448;48.086;10.862;2023-01-05T05:51:32;0.97;;;0.97;;
4867;SDS011;2448;48.086;10.862;2023-01-05T05:53:58;0.60;;;0.60;;
4867;SDS011;2448;48.086;10.862;2023-01-05T05:56:23;0.73;;;0.70;;
4867;SDS011;2448;48.086;10.862;2023-01-05T05:58:49;0.70;;;0.70;;
4867;SDS011;2448;48.086;10.862;2023-01-05T06:01:14;0.60;;;0.60;;
4867;SDS011;2448;48.086;10.862;2023-01-05T06:03:39;0.70;;;0.70;;
4867;SDS011;2448;48.086;10.862;2023-01-05T06:06:05;0.80;;;0.80;;
4867;SDS011;2448;48.086;10.862;2023-01-05T06:08:30;0.80;;;0.80;;
4867;SDS011;2448;48.086;10.862;2023-01-05T06:10:56;0.70;;;0.70;;
4867;SDS011;2448;48.086;10.862;2023-01-05T06:13:21;0.50;;;0.50;;
4867;SDS011;2448;48.086;10.862;2023-01-05T06:15:47;0.57;;;0.57;;
4867;SDS011;2448;48.086;10.862;2023-01-05T06:18:12;0.60;;;0.60;;
4867;SDS011;2448;48.086;10.862;2023-01-05T06:20:38;0.80;;;0.80;;
4867;SDS011;2448;48.086;10.862;2023-01-05T06:23:04;0.70;;;0.70;;
4867;SDS011;2448;48.086;10.862;2023-01-05T06:25:29;0.83;;;0.83;;
4867;SDS011;2448;48.086;10.862;2023-01-05T06:27:54;0.70;;;0.70;;
4867;SDS011;2448;48.086;10.862;2023-01-05T06:30:20;0.50;;;0.50;;
4867;SDS011;2448;48.086;10.862;2023-01-05T06:32:45;0.60;;;0.60;;
4867;SDS011;2448;48.086;10.862;2023-01-05T06:35:11;0.67;;;0.67;;
4867;SDS011;2448;48.086;10.862;2023-01-05T06:37:36;0.50;;;0.50;;
4867;SDS011;2448;48.086;10.862;2023-01-05T06:40:02;0.70;;;0.70;;
4867;SDS011;2448;48.086;10.862;2023-01-05T06:42:27;0.83;;;0.83;;
4867;SDS011;2448;48.086;10.862;2023-01-05T06:44:52;0.60;;;0.60;;
4867;SDS011;2448;48.086;10.862;2023-01-05T06:47:18;0.60;;;0.60;;
4867;SDS011;2448;48.086;10.862;2023-01-05T06:49:43;0.70;;;0.70;;
4867;SDS011;2448;48.086;10.862;2023-01-05T06:52:09;1.53;;;0.70;;
4867;SDS011;2448;48.086;10.862;2023-01-05T06:54:34;0.67;;;0.67;;
4867;SDS011;2448;48.086;10.862;2023-01-05T06:56:59;0.70;;;0.70;;
4867;SDS011;2448;48.086;10.862;2023-01-05T06:59:25;0.80;;;0.80;;
4867;SDS011;2448;48.086;10.862;2023-01-05T07:01:50;0.60;;;0.60;;
4867;SDS011;2448;48.086;10.862;2023-01-05T07:04:15;0.53;;;0.53;;
4867;SDS011;2448;48.086;10.862;2023-01-05T07:06:41;0.60;;;0.60;;
4867;SDS011;2448;48.086;10.862;2023-01-05T07:09:06;0.70;;;0.70;;
4867;SDS011;2448;48.086;10.862;2023-01-05T07:11:32;3.60;;;0.77;;
4867;SDS011;2448;48.086;10.862;2023-01-05T07:13:57;0.50;;;0.50;;
4867;SDS011;2448;48.086;10.862;2023-01-05T07:16:22;0.80;;;0.80;;
4867;SDS011;2448;48.086;10.862;2023-01-05T07:18:48;0.70;;;0.70;;
4867;SDS011;2448;48.086;10.862;2023-01-05T07:21:13;0.80;;;0.80;;
4867;SDS011;2448;48.086;10.862;2023-01-05T07:23:38;0.60;;;0.60;;
4867;SDS011;2448;48.086;10.862;2023-01-05T07:26:05;1.03;;;0.60;;
4867;SDS011;2448;48.086;10.862;2023-01-05T07:28:30;0.70;;;0.70;;
4867;SDS011;2448;48.086;10.862;2023-01-05T07:30:56;3.13;;;0.50;;
4867;SDS011;2448;48.086;10.862;2023-01-05T07:33:21;0.50;;;0.50;;
4867;SDS011;2448;48.086;10.862;2023-01-05T07:35:46;0.53;;;0.53;;
4867;SDS011;2448;48.086;10.862;2023-01-05T07:38:12;0.50;;;0.50;;
4867;SDS011;2448;48.086;10.862;2023-01-05T07:40:37;0.53;;;0.53;;
4867;SDS011;2448;48.086;10.862;2023-01-05T07:43:03;0.50;;;0.50;;
4867;SDS011;2448;48.086;10.862;2023-01-05T07:45:29;1.00;;;0.60;;
4867;SDS011;2448;48.086;10.862;2023-01-05T07:47:55;0.60;;;0.60;;
4867;SDS011;2448;48.086;10.862;2023-01-05T07:50:20;0.60;;;0.60;;
4867;SDS011;2448;48.086;10.862;2023-01-05T07:52:45;0.60;;;0.60;;
4867;SDS011;2448;48.086;10.862;2023-01-05T07:55:11;0.90;;;0.90;;
4867;SDS011;2448;48.086;10.862;2023-01-05T07:57:36;0.80;;;0.80;;
4867;SDS011;2448;48.086;10.862;2023-01-05T08:00:02;0.63;;;0.63;;
4867;SDS011;2448;48.086;10.862;2023-01-05T08:02:36;0.60;;;0.60;;
4867;SDS011;2448;48.086;10.862;2023-01-05T08:05:02;0.60;;;0.60;;
4867;SDS011;2448;48.086;10.862;2023-01-05T08:07:27;0.60;;;0.60;;
4867;SDS011;2448;48.086;10.862;2023-01-05T08:09:53;0.50;;;0.50;;
4867;SDS011;2448;48.086;10.862;2023-01-05T08:12:36;0.60;;;0.60;;
4867;SDS011;2448;48.086;10.862;2023-01-05T08:15:22;0.70;;;0.70;;
4867;SDS011;2448;48.086;10.862;2023-01-05T08:17:47;0.60;;;0.60;;
4867;SDS011;2448;48.086;10.862;2023-01-05T08:20:12;0.70;;;0.70;;
4867;SDS011;2448;48.086;10.862;2023-01-05T08:22:38;0.60;;;0.60;;
4867;SDS011;2448;48.086;10.862;2023-01-05T08:25:03;1.00;;;1.00;;
4867;SDS011;2448;48.086;10.862;2023-01-05T08:27:29;0.67;;;0.67;;
4867;SDS011;2448;48.086;10.862;2023-01-05T08:29:54;0.47;;;0.47;;
4867;SDS011;2448;48.086;10.862;2023-01-05T08:32:19;0.53;;;0.53;;
4867;SDS011;2448;48.086;10.862;2023-01-05T08:34:45;0.60;;;0.60;;
4867;SDS011;2448;48.086;10.862;2023-01-05T08:37:10;0.50;;;0.50;;
4867;SDS011;2448;48.086;10.862;2023-01-05T08:39:35;0.60;;;0.60;;
4867;SDS011;2448;48.086;10.862;2023-01-05T08:42:01;0.77;;;0.77;;
4867;SDS011;2448;48.086;10.862;2023-01-05T08:44:26;1.07;;;0.73;;
4867;SDS011;2448;48.086;10.862;2023-01-05T08:46:52;0.60;;;0.60;;
4867;SDS011;2448;48.086;10.862;2023-01-05T08:49:17;0.60;;;0.60;;
4867;SDS011;2448;48.086;10.862;2023-01-05T08:51:42;0.60;;;0.60;;
4867;SDS011;2448;48.086;10.862;2023-01-05T08:54:08;0.70;;;0.70;;
4867;SDS011;2448;48.086;10.862;2023-01-05T08:56:33;1.13;;;0.50;;
4867;SDS011;2448;48.086;10.862;2023-01-05T08:58:59;0.70;;;0.70;;
4867;SDS011;2448;48.086;10.862;2023-01-05T09:01:24;0.47;;;0.47;;
4867;SDS011;2448;48.086;10.862;2023-01-05T09:03:49;0.60;;;0.60;;
4867;SDS011;2448;48.086;10.862;2023-01-05T09:06:15;0.50;;;0.50;;
4867;SDS011;2448;48.086;10.862;2023-01-05T09:08:41;0.70;;;0.70;;
4867;SDS011;2448;48.086;10.862;2023-01-05T09:13:33;0.60;;;0.60;;
4867;SDS011;2448;48.086;10.862;2023-01-05T09:16:08;0.70;;;0.70;;
4867;SDS011;2448;48.086;10.862;2023-01-05T09:18:34;0.60;;;0.60;;
4867;SDS011;2448;48.086;10.862;2023-01-05T09:21:00;0.60;;;0.60;;
4867;SDS011;2448;48.086;10.862;2023-01-05T09:23:25;0.50;;;0.50;;
4867;SDS011;2448;48.086;10.862;2023-01-05T09:25:51;0.60;;;0.60;;
4867;SDS011;2448;48.086;10.862;2023-01-05T09:28:16;0.70;;;0.70;;
4867;SDS011;2448;48.086;10.862;2023-01-05T09:30:42;0.50;;;0.50;;
4867;SDS011;2448;48.086;10.862;2023-01-05T09:33:07;0.67;;;0.67;;
4867;SDS011;2448;48.086;10.862;2023-01-05T09:35:32;0.50;;;0.50;;
4867;SDS011;2448;48.086;10.862;2023-01-05T09:37:58;0.60;;;0.60;;
4867;SDS011;2448;48.086;10.862;2023-01-05T09:40:23;0.60;;;0.60;;
4867;SDS011;2448;48.086;10.862;2023-01-05T09:42:49;0.60;;;0.60;;
4867;SDS011;2448;48.086;10.862;2023-01-05T09:45:17;0.57;;;0.57;;
4867;SDS011;2448;48.086;10.862;2023-01-05T09:47:47;0.80;;;0.80;;
4867;SDS011;2448;48.086;10.862;2023-01-05T09:50:19;0.50;;;0.50;;
4867;SDS011;2448;48.086;10.862;2023-01-05T09:52:46;0.60;;;0.60;;
4867;SDS011;2448;48.086;10.862;2023-01-05T09:55:13;0.63;;;0.63;;
4867;SDS011;2448;48.086;10.862;2023-01-05T09:57:40;0.60;;;0.60;;
4867;SDS011;2448;48.086;10.862;2023-01-05T10:00:07;0.70;;;0.70;;
4867;SDS011;2448;48.086;10.862;2023-01-05T10:05:33;0.50;;;0.50;;
4867;SDS011;2448;48.086;10.862;2023-01-05T10:08:04;0.50;;;0.50;;
4867;SDS011;2448;48.086;10.862;2023-01-05T10:12:56;1.43;;;0.80;;
4867;SDS011;2448;48.086;10.862;2023-01-05T10:15:52;0.50;;;0.50;;
4867;SDS011;2448;48.086;10.862;2023-01-05T10:18:17;4.43;;;1.00;;
4867;SDS011;2448;48.086;10.862;2023-01-05T10:23:37;0.50;;;0.50;;
4867;SDS011;2448;48.086;10.862;2023-01-05T10:26:09;0.50;;;0.50;;
4867;SDS011;2448;48.086;10.862;2023-01-05T10:31:46;0.50;;;0.50;;
4867;SDS011;2448;48.086;10.862;2023-01-05T10:33:51;0.60;;;0.60;;
4867;SDS011;2448;48.086;10.862;2023-01-05T10:36:21;0.50;;;0.50;;
4867;SDS011;2448;48.086;10.862;2023-01-05T10:39:15;0.60;;;0.60;;
4867;SDS011;2448;48.086;10.862;2023-01-05T10:41:37;0.60;;;0.60;;
4867;SDS011;2448;48.086;10.862;2023-01-05T10:46:48;0.63;;;0.63;;
4867;SDS011;2448;48.086;10.862;2023-01-05T10:49:18;0.60;;;0.60;;
4867;SDS011;2448;48.086;10.862;2023-01-05T10:51:44;0.50;;;0.50;;
4867;SDS011;2448;48.086;10.862;2023-01-05T10:54:13;0.60;;;0.60;;
4867;SDS011;2448;48.086;10.862;2023-01-05T10:56:44;0.60;;;0.60;;
4867;SDS011;2448;48.086;10.862;2023-01-05T10:59:11;0.60;;;0.60;;
4867;SDS011;2448;48.086;10.862;2023-01-05T11:01:41;0.70;;;0.70;;
4867;SDS011;2448;48.086;10.862;2023-01-05T11:04:08;0.70;;;0.70;;
4867;SDS011;2448;48.086;10.862;2023-01-05T11:06:36;0.70;;;0.70;;
4867;SDS011;2448;48.086;10.862;2023-01-05T11:11:37;0.70;;;0.70;;
4867;SDS011;2448;48.086;10.862;2023-01-05T11:14:02;0.60;;;0.60;;
4867;SDS011;2448;48.086;10.862;2023-01-05T11:16:29;0.57;;;0.57;;
4867;SDS011;2448;48.086;10.862;2023-01-05T11:18:59;0.50;;;0.50;;
4867;SDS011;2448;48.086;10.862;2023-01-05T11:24:00;0.60;;;0.60;;
4867;SDS011;2448;48.086;10.862;2023-01-05T11:28:58;0.70;;;0.70;;
4867;SDS011;2448;48.086;10.862;2023-01-05T11:34:20;0.60;;;0.60;;
4867;SDS011;2448;48.086;10.862;2023-01-05T11:36:55;1.30;;;1.30;;
4867;SDS011;2448;48.086;10.862;2023-01-05T11:39:32;1.23;;;0.80;;
4867;SDS011;2448;48.086;10.862;2023-01-05T11:42:11;0.80;;;0.80;;
4867;SDS011;2448;48.086;10.862;2023-01-05T11:44:38;0.80;;;0.80;;
4867;SDS011;2448;48.086;10.862;2023-01-05T11:47:04;0.80;;;0.80;;
4867;SDS011;2448;48.086;10.862;2023-01-05T11:49:30;0.67;;;0.67;;
4867;SDS011;2448;48.086;10.862;2023-01-05T11:51:55;0.60;;;0.60;;
4867;SDS011;2448;48.086;10.862;2023-01-05T11:54:25;0.60;;;0.60;;
4867;SDS011;2448;48.086;10.862;2023-01-05T11:57:05;0.60;;;0.60;;
4867;SDS011;2448;48.086;10.862;2023-01-05T11:59:30;0.73;;;0.73;;
4867;SDS011;2448;48.086;10.862;2023-01-05T12:04:54;0.70;;;0.70;;
4867;SDS011;2448;48.086;10.862;2023-01-05T12:07:37;0.80;;;0.80;;
4867;SDS011;2448;48.086;10.862;2023-01-05T12:12:59;0.80;;;0.80;;
4867;SDS011;2448;48.086;10.862;2023-01-05T12:15:33;4.03;;;1.03;;
4867;SDS011;2448;48.086;10.862;2023-01-05T12:23:15;1.13;;;1.00;;
4867;SDS011;2448;48.086;10.862;2023-01-05T12:25:54;0.70;;;0.70;;
4867;SDS011;2448;48.086;10.862;2023-01-05T12:28:23;0.83;;;0.83;;
4867;SDS011;2448;48.086;10.862;2023-01-05T12:36:02;2.63;;;1.43;;
4867;SDS011;2448;48.086;10.862;2023-01-05T12:54:04;0.80;;;0.80;;
4867;SDS011;2448;48.086;10.862;2023-01-05T12:56:48;0.87;;;0.87;;
4867;SDS011;2448;48.086;10.862;2023-01-05T13:01:53;0.70;;;0.70;;
4867;SDS011;2448;48.086;10.862;2023-01-05T13:06:49;0.60;;;0.60;;
4867;SDS011;2448;48.086;10.862;2023-01-05T13:09:18;0.50;;;0.50;;
4867;SDS011;2448;48.086;10.862;2023-01-05T13:11:50;8.43;;;0.83;;
4867;SDS011;2448;48.086;10.862;2023-01-05T13:14:23;0.87;;;0.80;;
4867;SDS011;2448;48.086;10.862;2023-01-05T13:16:53;1.00;;;1.00;;
4867;SDS011;2448;48.086;10.862;2023-01-05T13:19:24;0.70;;;0.63;;
4867;SDS011;2448;48.086;10.862;2023-01-05T13:21:52;0.70;;;0.70;;
4867;SDS011;2448;48.086;10.862;2023-01-05T13:26:51;1.07;;;0.70;;
4867;SDS011;2448;48.086;10.862;2023-01-05T13:29:21;0.70;;;0.70;;
4867;SDS011;2448;48.086;10.862;2023-01-05T13:32:30;0.60;;;0.60;;
4867;SDS011;2448;48.086;10.862;2023-01-05T13:34:56;0.73;;;0.73;;
4867;SDS011;2448;48.086;10.862;2023-01-05T13:42:53;1.00;;;0.97;;
4867;SDS011;2448;48.086;10.862;2023-01-05T13:45:29;0.67;;;0.67;;
4867;SDS011;2448;48.086;10.862;2023-01-05T13:50:29;0.60;;;0.60;;
4867;SDS011;2448;48.086;10.862;2023-01-05T13:53:10;0.63;;;0.63;;
4867;SDS011;2448;48.086;10.862;2023-01-05T13:55:38;0.70;;;0.70;;
4867;SDS011;2448;48.086;10.862;2023-01-05T13:58:05;1.10;;;0.80;;
4867;SDS011;2448;48.086;10.862;2023-01-05T14:00:50;0.50;;;0.50;;
4867;SDS011;2448;48.086;10.862;2023-01-05T14:03:20;0.70;;;0.70;;
4867;SDS011;2448;48.086;10.862;2023-01-05T14:05:48;0.50;;;0.50;;
4867;SDS011;2448;48.086;10.862;2023-01-05T14:08:19;0.93;;;0.90;;
4867;SDS011;2448;48.086;10.862;2023-01-05T14:11:05;5.37;;;0.90;;
4867;SDS011;2448;48.086;10.862;2023-01-05T14:13:40;0.70;;;0.70;;
4867;SDS011;2448;48.086;10.862;2023-01-05T14:18:50;0.70;;;0.70;;
4867;SDS011;2448;48.086;10.862;2023-01-05T14:21:41;0.57;;;0.57;;
4867;SDS011;2448;48.086;10.862;2023-01-05T14:24:01;0.63;;;0.63;;
4867;SDS011;2448;48.086;10.862;2023-01-05T14:29:10;0.50;;;0.50;;
4867;SDS011;2448;48.086;10.862;2023-01-05T14:31:35;0.80;;;0.80;;
4867;SDS011;2448;48.086;10.862;2023-01-05T14:34:03;1.00;;;0.73;;
4867;SDS011;2448;48.086;10.862;2023-01-05T14:36:30;0.50;;;0.50;;
4867;SDS011;2448;48.086;10.862;2023-01-05T14:38:56;0.80;;;0.80;;
4867;SDS011;2448;48.086;10.862;2023-01-05T14:41:22;0.77;;;0.73;;
4867;SDS011;2448;48.086;10.862;2023-01-05T14:44:03;1.30;;;0.90;;
4867;SDS011;2448;48.086;10.862;2023-01-05T14:46:41;0.87;;;0.87;;
4867;SDS011;2448;48.086;10.862;2023-01-05T14:49:08;9.40;;;1.07;;
4867;SDS011;2448;48.086;10.862;2023-01-05T14:51:40;1.53;;;0.90;;
4867;SDS011;2448;48.086;10.862;2023-01-05T14:54:15;1.10;;;1.00;;
4867;SDS011;2448;48.086;10.862;2023-01-05T14:59:42;0.80;;;0.80;;
4867;SDS011;2448;48.086;10.862;2023-01-05T15:02:19;2.20;;;0.80;;
4867;SDS011;2448;48.086;10.862;2023-01-05T15:04:46;0.73;;;0.73;;
4867;SDS011;2448;48.086;10.862;2023-01-05T15:07:27;0.80;;;0.80;;
4867;SDS011;2448;48.086;10.862;2023-01-05T15:28:43;0.80;;;0.80;;
4867;SDS011;2448;48.086;10.862;2023-01-05T15:31:30;1.53;;;0.80;;
4867;SDS011;2448;48.086;10.862;2023-01-05T15:36:50;0.90;;;0.90;;
4867;SDS011;2448;48.086;10.862;2023-01-05T15:39:24;1.33;;;1.23;;
4867;SDS011;2448;48.086;10.862;2023-01-05T15:41:50;0.93;;;0.90;;
4867;SDS011;2448;48.086;10.862;2023-01-05T15:44:16;1.70;;;1.60;;
4867;SDS011;2448;48.086;10.862;2023-01-05T15:46:43;1.00;;;1.00;;
4867;SDS011;2448;48.086;10.862;2023-01-05T15:49:16;0.83;;;0.83;;
4867;SDS011;2448;48.086;10.862;2023-01-05T15:51:46;1.13;;;0.97;;
4867;SDS011;2448;48.086;10.862;2023-01-05T15:54:18;0.90;;;0.87;;
4867;SDS011;2448;48.086;10.862;2023-01-05T15:56:44;0.80;;;0.80;;
4867;SDS011;2448;48.086;10.862;2023-01-05T16:01:44;3.03;;;0.70;;
4867;SDS011;2448;48.086;10.862;2023-01-05T16:04:12;1.07;;;1.00;;
4867;SDS011;2448;48.086;10.862;2023-01-05T16:06:38;1.17;;;0.93;;
4867;SDS011;2448;48.086;10.862;2023-01-05T16:09:47;4.40;;;1.00;;
4867;SDS011;2448;48.086;10.862;2023-01-05T16:11:54;2.40;;;1.47;;
4867;SDS011;2448;48.086;10.862;2023-01-05T16:16:55;1.10;;;1.10;;
4867;SDS011;2448;48.086;10.862;2023-01-05T16:26:50;1.00;;;1.00;;
4867;SDS011;2448;48.086;10.862;2023-01-05T16:29:19;1.13;;;1.10;;
4867;SDS011;2448;48.086;10.862;2023-01-05T16:31:52;1.23;;;1.10;;
4867;SDS011;2448;48.086;10.862;2023-01-05T16:34:18;3.80;;;1.63;;
4867;SDS011;2448;48.086;10.862;2023-01-05T16:37:00;1.80;;;1.70;;
4867;SDS011;2448;48.086;10.862;2023-01-05T16:39:30;3.63;;;2.20;;
4867;SDS011;2448;48.086;10.862;2023-01-05T16:44:58;1.30;;;1.30;;
4867;SDS011;2448;48.086;10.862;2023-01-05T16:47:34;1.10;;;1.03;;
4867;SDS011;2448;48.086;10.862;2023-01-05T16:50:00;3.30;;;2.03;;
4867;SDS011;2448;48.086;10.862;2023-01-05T16:52:30;1.60;;;1.50;;
4867;SDS011;2448;48.086;10.862;2023-01-05T16:55:41;3.03;;;1.20;;
4867;SDS011;2448;48.086;10.862;2023-01-05T16:57:42;1.60;;;1.50;;
4867;SDS011;2448;48.086;10.862;2023-01-05T17:02:52;2.10;;;2.00;;
4867;SDS011;2448;48.086;10.862;2023-01-05T17:05:36;1.60;;;1.60;;
4867;SDS011;2448;48.086;10.862;2023-01-05T17:10:27;1.37;;;1.30;;
4867;SDS011;2448;48.086;10.862;2023-01-05T17:13:05;8.03;;;3.87;;
4867;SDS011;2448;48.086;10.862;2023-01-05T17:15:32;2.13;;;1.87;;
4867;SDS011;2448;48.086;10.862;2023-01-05T17:17:58;5.53;;;2.47;;
4867;SDS011;2448;48.086;10.862;2023-01-05T17:20:24;2.40;;;2.30;;
4867;SDS011;2448;48.086;10.862;2023-01-05T17:22:50;1.40;;;1.30;;
4867;SDS011;2448;48.086;10.862;2023-01-05T17:25:18;2.20;;;1.80;;
4867;SDS011;2448;48.086;10.862;2023-01-05T17:27:43;3.83;;;2.70;;
4867;SDS011;2448;48.086;10.862;2023-01-05T17:30:27;3.47;;;3.17;;
4867;SDS011;2448;48.086;10.862;2023-01-05T17:32:52;2.33;;;2.13;;
4867;SDS011;2448;48.086;10.862;2023-01-05T17:35:17;3.20;;;3.00;;
4867;SDS011;2448;48.086;10.862;2023-01-05T17:37:43;3.40;;;3.20;;
4867;SDS011;2448;48.086;10.862;2023-01-05T17:40:11;2.43;;;2.33;;
4867;SDS011;2448;48.086;10.862;2023-01-05T17:42:39;2.40;;;2.10;;